Time;durP1;ratioP1;P1;durP2;ratioP2;P2;SDS_P1;SDS_P2;PMS_P1;PMS_P2;Temp;Humidity;BMP_temperature;BMP_pressure;BME280_temperature;BME280_humidity;BME280_pressure;Samples;Min_cycle;Max_cycle;Signal;HPM_P1;HPM_P2
2021/07/21 00:01:39;;;;;;;8.77;6.40;;;16.10;99.90;;;;;;4995596;28;20175;-62
2021/07/21 00:04:05;;;;;;;7.13;5.40;;;16.10;99.90;;;;;;4995787;28;20190;-62
2021/07/21 00:06:31;;;;;;;6.83;5.17;;;16.00;99.90;;;;;;4995403;28;20438;-63
2021/07/21 00:08:56;;;;;;;6.93;5.17;;;16.00;99.90;;;;;;4995184;28;20179;-62
2021/07/21 00:14:18;;;;;;;9.37;5.50;;;15.80;99.90;;;;;;4995594;28;20177;-62
2021/07/21 00:16:49;;;;;;;7.10;4.90;;;15.70;99.90;;;;;;4995175;28;20473;-62
2021/07/21 00:21:59;;;;;;;7.80;5.60;;;15.60;99.90;;;;;;4995427;28;20418;-62
2021/07/21 00:24:24;;;;;;;6.67;5.97;;;15.50;99.90;;;;;;4995401;28;20422;-62
2021/07/21 00:26:50;;;;;;;8.37;4.70;;;15.50;99.90;;;;;;4995211;28;20211;-62
2021/07/21 00:29:16;;;;;;;7.90;5.80;;;15.50;99.90;;;;;;4994755;28;20680;-62
2021/07/21 00:31:41;;;;;;;8.47;6.60;;;15.50;99.90;;;;;;4994690;28;20190;-62
2021/07/21 00:34:07;;;;;;;7.70;6.90;;;15.50;99.90;;;;;;4995172;28;20183;-62
2021/07/21 00:36:32;;;;;;;7.00;4.93;;;15.50;99.90;;;;;;4994771;28;20662;-62
2021/07/21 00:38:58;;;;;;;8.77;4.90;;;15.50;99.90;;;;;;4994752;28;20184;-62
2021/07/21 00:41:23;;;;;;;11.13;6.77;;;15.40;99.90;;;;;;4995044;28;20660;-62
2021/07/21 00:43:50;;;;;;;6.53;5.17;;;15.40;99.90;;;;;;4994086;28;20207;-62
2021/07/21 00:46:16;;;;;;;8.53;5.43;;;15.40;99.90;;;;;;4994486;28;20511;-62
2021/07/21 00:48:41;;;;;;;6.87;4.90;;;15.30;99.90;;;;;;4994544;28;20626;-62
2021/07/21 00:51:07;;;;;;;5.90;4.73;;;15.30;99.90;;;;;;4994711;28;20253;-62
2021/07/21 00:53:33;;;;;;;6.43;4.50;;;15.20;99.90;;;;;;4994818;28;20210;-62
2021/07/21 00:55:59;;;;;;;6.60;5.03;;;15.20;99.90;;;;;;4993315;28;20585;-62
2021/07/21 00:58:25;;;;;;;6.00;4.90;;;15.10;99.90;;;;;;4994269;28;20496;-62
2021/07/21 01:00:53;;;;;;;7.77;4.60;;;15.10;99.90;;;;;;4994267;28;20927;-62
2021/07/21 01:03:18;;;;;;;5.90;5.20;;;15.00;99.90;;;;;;4994712;28;20541;-62
2021/07/21 01:05:44;;;;;;;7.70;6.30;;;15.00;99.90;;;;;;4994453;28;20432;-62
2021/07/21 01:08:12;;;;;;;8.63;5.50;;;14.90;99.90;;;;;;4994113;28;20204;-62
2021/07/21 01:10:46;;;;;;;10.67;5.70;;;14.90;99.90;;;;;;4994587;28;20185;-62
2021/07/21 01:13:18;;;;;;;9.70;5.37;;;14.90;99.90;;;;;;4994629;28;20409;-62
2021/07/21 01:16:10;;;;;;;7.43;5.17;;;14.90;99.90;;;;;;4993918;28;20479;-62
2021/07/21 01:18:50;;;;;;;7.57;4.53;;;14.80;99.90;;;;;;4990423;28;20482;-62
2021/07/21 01:21:19;;;;;;;6.50;5.20;;;14.80;99.90;;;;;;4994525;28;20421;-61
2021/07/21 01:23:47;;;;;;;6.17;4.90;;;14.80;99.90;;;;;;4994321;28;20420;-62
2021/07/21 01:26:42;;;;;;;8.93;5.70;;;14.70;99.90;;;;;;4994108;28;20816;-62
2021/07/21 01:29:09;;;;;;;9.07;6.47;;;14.60;99.90;;;;;;4993653;28;20423;-62
2021/07/21 01:31:38;;;;;;;6.23;4.50;;;14.60;99.90;;;;;;4994287;28;20489;-62
2021/07/21 01:34:08;;;;;;;8.27;5.10;;;14.60;99.90;;;;;;4994295;28;20405;-62
2021/07/21 01:36:38;;;;;;;5.93;5.20;;;14.50;99.90;;;;;;4993997;28;20459;-62
2021/07/21 01:39:09;;;;;;;5.80;4.53;;;14.50;99.90;;;;;;4994026;28;20426;-62
2021/07/21 01:41:38;;;;;;;5.87;5.33;;;14.50;99.90;;;;;;4994123;28;20410;-62
2021/07/21 01:44:11;;;;;;;7.23;5.27;;;14.60;99.90;;;;;;4993959;28;20436;-62
2021/07/21 01:46:37;;;;;;;5.80;5.03;;;14.50;99.90;;;;;;4993962;28;20999;-62
2021/07/21 01:49:04;;;;;;;6.07;4.80;;;14.50;99.90;;;;;;4993498;28;20422;-62
2021/07/21 01:51:33;;;;;;;6.77;5.10;;;14.40;99.90;;;;;;4993905;28;20414;-62
2021/07/21 01:53:59;;;;;;;9.23;5.77;;;14.40;99.90;;;;;;4994008;28;20833;-62
2021/07/21 01:56:27;;;;;;;6.97;5.40;;;14.40;99.90;;;;;;4996981;28;20469;-62
2021/07/21 01:58:55;;;;;;;7.20;5.87;;;14.40;99.90;;;;;;4997429;28;20429;-61
2021/07/21 02:01:23;;;;;;;7.30;5.23;;;14.40;99.90;;;;;;4997963;28;20521;-62
2021/07/21 02:03:49;;;;;;;6.53;4.90;;;14.40;99.90;;;;;;4998064;28;20404;-61
2021/07/21 02:06:16;;;;;;;7.60;5.43;;;14.50;99.90;;;;;;4997959;28;20487;-62
2021/07/21 02:08:43;;;;;;;7.90;6.40;;;14.50;99.90;;;;;;4997760;28;20637;-62
2021/07/21 02:11:09;;;;;;;8.07;5.60;;;14.50;99.90;;;;;;4997873;28;20473;-62
2021/07/21 02:13:37;;;;;;;6.90;6.20;;;14.50;99.90;;;;;;4997470;28;20822;-61
2021/07/21 02:16:05;;;;;;;9.37;6.30;;;14.50;99.90;;;;;;4997338;28;20290;-61
2021/07/21 02:18:32;;;;;;;7.33;5.40;;;14.50;99.90;;;;;;4997345;28;20567;-61
2021/07/21 02:21:02;;;;;;;9.63;6.73;;;14.50;99.90;;;;;;4997707;28;20412;-61
2021/07/21 02:23:28;;;;;;;7.97;5.50;;;14.50;99.90;;;;;;4997537;28;20408;-61
2021/07/21 02:25:59;;;;;;;5.40;4.80;;;14.50;99.90;;;;;;4997431;28;20815;-61
2021/07/21 02:28:25;;;;;;;9.23;6.80;;;14.50;99.90;;;;;;4996989;28;20435;-61
2021/07/21 02:30:53;;;;;;;6.53;5.87;;;14.40;99.90;;;;;;4997575;28;20441;-61
2021/07/21 02:33:52;;;;;;;5.67;4.53;;;14.40;99.90;;;;;;4997452;28;20402;-61
2021/07/21 02:36:18;;;;;;;6.60;4.97;;;14.40;99.90;;;;;;4996903;28;20446;-61
2021/07/21 02:38:45;;;;;;;6.73;4.40;;;14.40;99.90;;;;;;4996782;28;20995;-62
2021/07/21 02:41:11;;;;;;;6.97;5.83;;;14.30;99.90;;;;;;4996733;28;20954;-62
2021/07/21 02:43:37;;;;;;;8.60;5.03;;;14.30;99.90;;;;;;4996152;28;20414;-61
2021/07/21 02:46:03;;;;;;;6.87;4.80;;;14.30;99.90;;;;;;4997159;28;20254;-61
2021/07/21 02:48:29;;;;;;;7.40;4.87;;;14.20;99.90;;;;;;4995172;28;20182;-62
2021/07/21 02:51:01;;;;;;;7.10;5.40;;;14.20;99.90;;;;;;4997127;28;20891;-62
2021/07/21 02:53:33;;;;;;;8.60;5.30;;;14.10;99.90;;;;;;4997107;28;20185;-61
2021/07/21 02:56:25;;;;;;;5.10;4.37;;;14.10;99.90;;;;;;4996946;28;20524;-61
2021/07/21 02:59:01;;;;;;;6.57;5.47;;;14.10;99.90;;;;;;4995392;28;20435;-61
2021/07/21 03:01:28;;;;;;;6.07;4.97;;;14.10;99.90;;;;;;4996944;28;20405;-62
2021/07/21 03:03:54;;;;;;;6.40;5.13;;;14.10;99.90;;;;;;4996733;28;20409;-61
2021/07/21 03:06:23;;;;;;;6.60;5.33;;;14.00;99.90;;;;;;4996022;28;20424;-62
2021/07/21 03:08:51;;;;;;;6.30;4.77;;;14.00;99.90;;;;;;4996327;28;20753;-61
2021/07/21 03:11:19;;;;;;;6.83;4.67;;;14.00;99.90;;;;;;4996655;28;20397;-61
2021/07/21 03:13:59;;;;;;;6.13;5.53;;;14.00;99.90;;;;;;4996570;28;20397;-61
2021/07/21 03:16:26;;;;;;;7.10;4.97;;;13.90;99.90;;;;;;4996215;28;20485;-61
2021/07/21 03:18:56;;;;;;;8.60;5.60;;;13.90;99.90;;;;;;4995882;28;20476;-60
2021/07/21 03:21:23;;;;;;;7.97;5.13;;;13.90;99.90;;;;;;4995190;28;20415;-61
2021/07/21 03:23:50;;;;;;;6.03;5.43;;;13.90;99.90;;;;;;4996434;28;20502;-61
2021/07/21 03:26:17;;;;;;;6.23;5.37;;;13.80;99.90;;;;;;4996205;28;20451;-61
2021/07/21 03:28:44;;;;;;;4.70;4.20;;;13.80;99.90;;;;;;4995959;28;20942;-62
2021/07/21 03:31:11;;;;;;;5.83;4.97;;;13.80;99.90;;;;;;4996190;28;20495;-61
2021/07/21 03:33:39;;;;;;;6.60;5.47;;;13.70;99.90;;;;;;4996461;28;20432;-61
2021/07/21 03:36:06;;;;;;;8.73;6.13;;;13.70;99.90;;;;;;4996012;28;20448;-61
2021/07/21 03:38:33;;;;;;;7.70;5.73;;;13.70;99.90;;;;;;4996069;28;20461;-61
2021/07/21 03:41:00;;;;;;;8.43;7.53;;;13.70;99.90;;;;;;4996226;28;20414;-62
2021/07/21 03:43:26;;;;;;;7.60;6.10;;;13.80;99.90;;;;;;4996106;28;20749;-62
2021/07/21 03:45:56;;;;;;;4.97;4.10;;;13.70;99.90;;;;;;4994648;28;20494;-62
2021/07/21 03:48:24;;;;;;;7.13;5.43;;;13.70;99.90;;;;;;4995825;28;20428;-62
2021/07/21 03:50:50;;;;;;;6.67;5.13;;;13.60;99.90;;;;;;4996032;28;20427;-62
2021/07/21 03:53:16;;;;;;;8.80;6.13;;;13.60;99.90;;;;;;4996027;28;20424;-61
2021/07/21 03:55:42;;;;;;;7.77;5.80;;;13.60;99.90;;;;;;4995792;28;20629;-61
2021/07/21 03:58:09;;;;;;;5.40;4.90;;;13.60;99.90;;;;;;4995451;28;20445;-61
2021/07/21 04:00:35;;;;;;;8.37;5.77;;;13.60;99.90;;;;;;4995919;28;20206;-64
2021/07/21 04:03:02;;;;;;;6.18;5.13;;;13.60;99.90;;;;;;4995300;28;20516;-63
2021/07/21 04:05:31;;;;;;;7.80;6.30;;;13.60;99.90;;;;;;4995636;28;20193;-62
2021/07/21 04:07:57;;;;;;;9.93;5.60;;;13.70;99.90;;;;;;4995320;28;20423;-62
2021/07/21 04:10:23;;;;;;;8.40;5.53;;;13.80;99.90;;;;;;4995702;28;20416;-62
2021/07/21 04:12:52;;;;;;;8.47;5.40;;;13.80;99.90;;;;;;4995638;28;20420;-62
2021/07/21 04:15:24;;;;;;;7.60;5.77;;;13.80;99.90;;;;;;4995308;28;20448;-61
2021/07/21 04:17:52;;;;;;;7.50;5.80;;;13.80;99.90;;;;;;4995255;28;20465;-61
2021/07/21 04:20:19;;;;;;;6.20;4.97;;;13.80;99.90;;;;;;4995135;28;20405;-61
2021/07/21 04:22:45;;;;;;;9.20;5.53;;;13.90;99.90;;;;;;4995232;28;20402;-61
2021/07/21 04:25:14;;;;;;;7.60;5.40;;;14.00;99.90;;;;;;4995051;28;20476;-61
2021/07/21 04:27:41;;;;;;;6.47;5.87;;;14.00;99.90;;;;;;4995385;28;20442;-62
2021/07/21 04:30:09;;;;;;;6.77;5.97;;;14.10;99.90;;;;;;4994759;28;20426;-60
2021/07/21 04:32:35;;;;;;;6.30;4.80;;;14.10;99.90;;;;;;4994448;28;20434;-61
2021/07/21 04:35:02;;;;;;;8.53;6.10;;;14.10;99.90;;;;;;4995280;28;20496;-61
2021/07/21 04:37:29;;;;;;;7.90;5.33;;;14.30;99.90;;;;;;4995055;28;20449;-62
2021/07/21 04:39:55;;;;;;;6.33;5.70;;;14.40;99.90;;;;;;4994731;28;20750;-62
2021/07/21 04:42:27;;;;;;;5.30;4.77;;;14.50;99.90;;;;;;4995029;28;20414;-61
2021/07/21 04:44:53;;;;;;;7.20;5.30;;;14.50;99.90;;;;;;4994743;28;20503;-60
2021/07/21 04:47:19;;;;;;;4.93;4.43;;;14.60;99.90;;;;;;4993175;28;20452;-61
2021/07/21 04:49:45;;;;;;;6.47;4.80;;;14.70;99.90;;;;;;4994088;28;20433;-62
2021/07/21 04:52:14;;;;;;;7.10;5.97;;;14.90;99.90;;;;;;4994777;28;20522;-61
2021/07/21 04:54:40;;;;;;;6.40;4.90;;;14.90;99.90;;;;;;4994654;28;20406;-61
2021/07/21 04:57:08;;;;;;;6.90;5.77;;;14.90;99.90;;;;;;4994213;28;20500;-61
2021/07/21 04:59:34;;;;;;;6.30;5.37;;;14.90;99.90;;;;;;4994400;28;20780;-64
2021/07/21 05:01:59;;;;;;;5.93;5.07;;;15.00;99.90;;;;;;4994682;28;20402;-61
2021/07/21 05:04:25;;;;;;;8.77;5.30;;;15.20;99.90;;;;;;4994374;28;20426;-61
2021/07/21 05:06:51;;;;;;;10.97;5.33;;;15.30;99.90;;;;;;4994475;28;20525;-61
2021/07/21 05:09:16;;;;;;;6.67;5.10;;;15.40;99.90;;;;;;4993970;28;20411;-61
2021/07/21 05:11:42;;;;;;;6.70;5.20;;;15.40;99.90;;;;;;4994187;28;20194;-61
2021/07/21 05:14:08;;;;;;;6.93;4.90;;;15.60;99.90;;;;;;4993051;28;20179;-61
2021/07/21 05:16:35;;;;;;;6.00;5.40;;;15.60;99.90;;;;;;4994341;28;20192;-61
2021/07/21 05:19:01;;;;;;;7.57;6.40;;;15.60;99.90;;;;;;4993800;28;20278;-61
2021/07/21 05:21:27;;;;;;;5.20;4.70;;;15.80;99.90;;;;;;4994191;28;20470;-60
2021/07/21 05:23:53;;;;;;;6.87;5.87;;;15.90;99.90;;;;;;4994124;28;20171;-60
2021/07/21 05:26:19;;;;;;;5.13;4.27;;;16.10;99.90;;;;;;4992499;28;20457;-60
2021/07/21 05:28:45;;;;;;;5.50;4.83;;;16.20;99.90;;;;;;4993227;28;20502;-60
2021/07/21 05:31:11;;;;;;;9.07;6.07;;;16.30;99.90;;;;;;4993678;28;20458;-60
2021/07/21 05:33:37;;;;;;;9.00;5.73;;;16.40;99.90;;;;;;4994157;28;20183;-60
2021/07/21 05:36:03;;;;;;;6.30;5.30;;;16.40;99.90;;;;;;4993844;28;20207;-60
2021/07/21 05:38:30;;;;;;;5.67;5.17;;;16.60;99.90;;;;;;4993552;28;20545;-60
2021/07/21 05:40:56;;;;;;;8.20;4.53;;;16.80;99.90;;;;;;4992394;28;20415;-60
2021/07/21 05:43:22;;;;;;;5.87;5.00;;;17.00;99.90;;;;;;4993456;28;20414;-60
2021/07/21 05:45:49;;;;;;;8.23;6.07;;;17.20;99.90;;;;;;4993652;28;20955;-60
2021/07/21 05:48:15;;;;;;;6.60;5.37;;;17.50;99.90;;;;;;4993345;28;20821;-60
2021/07/21 05:50:41;;;;;;;7.30;5.43;;;18.00;99.90;;;;;;4993938;28;20494;-60
2021/07/21 05:53:07;;;;;;;6.87;4.97;;;18.40;99.90;;;;;;4993642;28;20984;-60
2021/07/21 05:55:32;;;;;;;6.70;4.93;;;18.80;99.90;;;;;;4993258;28;20206;-61
2021/07/21 05:57:58;;;;;;;7.03;4.70;;;18.90;99.90;;;;;;4993545;28;20203;-63
2021/07/21 06:00:24;;;;;;;11.40;4.87;;;19.10;99.90;;;;;;4993940;28;20180;-61
2021/07/21 06:02:50;;;;;;;6.23;4.27;;;19.20;99.90;;;;;;4993687;28;20168;-61
2021/07/21 06:05:15;;;;;;;7.23;5.33;;;19.40;99.90;;;;;;4993617;28;20171;-61
2021/07/21 06:07:41;;;;;;;6.27;5.20;;;19.50;99.90;;;;;;4993682;28;20587;-61
2021/07/21 06:10:08;;;;;;;6.57;4.63;;;19.40;99.90;;;;;;4993116;28;20709;-61
2021/07/21 06:12:34;;;;;;;6.27;4.80;;;19.40;99.90;;;;;;4993383;28;20445;-61
2021/07/21 06:15:01;;;;;;;6.80;4.90;;;19.20;99.90;;;;;;4993536;28;20411;-61
2021/07/21 06:17:26;;;;;;;6.50;5.00;;;19.10;99.90;;;;;;4993238;28;20580;-62
2021/07/21 06:19:52;;;;;;;5.93;4.70;;;19.10;99.90;;;;;;4993178;28;21112;-65
2021/07/21 06:22:18;;;;;;;6.97;5.53;;;19.10;99.90;;;;;;4993580;28;20187;-65
2021/07/21 06:24:48;;;;;;;6.03;4.83;;;19.00;99.90;;;;;;4993716;28;20511;-64
2021/07/21 06:27:14;;;;;;;8.27;5.20;;;19.00;99.90;;;;;;4993421;28;20860;-64
2021/07/21 06:29:45;;;;;;;7.30;6.00;;;19.10;99.90;;;;;;4993315;28;20426;-63
2021/07/21 06:32:10;;;;;;;5.83;4.67;;;19.20;99.90;;;;;;4993075;28;20438;-61
2021/07/21 06:34:36;;;;;;;8.40;6.00;;;19.30;99.90;;;;;;4993505;28;20889;-61
2021/07/21 06:37:02;;;;;;;7.20;4.27;;;19.40;99.90;;;;;;4993613;28;20262;-63
2021/07/21 06:39:28;;;;;;;7.93;5.63;;;19.50;99.90;;;;;;4993304;28;20255;-62
2021/07/21 06:41:54;;;;;;;6.73;4.03;;;19.60;99.90;;;;;;4994063;28;20489;-61
2021/07/21 06:44:20;;;;;;;7.47;5.70;;;19.70;99.90;;;;;;4997432;28;20530;-63
2021/07/21 06:46:46;;;;;;;11.13;4.73;;;19.70;99.90;;;;;;4996637;28;20446;-61
2021/07/21 06:49:11;;;;;;;7.17;4.67;;;19.70;99.90;;;;;;4996880;28;20669;-61
2021/07/21 06:51:37;;;;;;;10.37;5.37;;;19.90;99.90;;;;;;4996965;28;20175;-61
2021/07/21 06:54:03;;;;;;;9.33;5.43;;;20.10;99.90;;;;;;4995700;28;20183;-60
2021/07/21 06:56:29;;;;;;;6.13;3.97;;;20.30;99.90;;;;;;4996698;28;20666;-60
2021/07/21 06:58:55;;;;;;;5.53;4.73;;;20.30;99.90;;;;;;4996338;28;20418;-60
2021/07/21 07:01:21;;;;;;;9.20;4.83;;;20.40;99.90;;;;;;4996239;28;20180;-60
2021/07/21 07:03:47;;;;;;;6.47;5.30;;;20.40;99.90;;;;;;4995982;28;20503;-62
2021/07/21 07:06:13;;;;;;;8.23;6.00;;;20.30;99.90;;;;;;4996168;28;20462;-62
2021/07/21 07:08:39;;;;;;;7.30;4.60;;;20.20;99.90;;;;;;4995797;28;20889;-62
2021/07/21 07:11:05;;;;;;;7.77;4.37;;;20.40;99.90;;;;;;4995875;28;20419;-61
2021/07/21 07:13:31;;;;;;;6.60;5.03;;;20.50;99.90;;;;;;4995856;28;20573;-61
2021/07/21 07:15:56;;;;;;;4.90;4.40;;;20.60;99.90;;;;;;4995625;28;20453;-61
2021/07/21 07:18:22;;;;;;;7.03;5.37;;;20.60;99.90;;;;;;4995784;28;20235;-61
2021/07/21 07:20:50;;;;;;;7.10;4.80;;;20.50;99.90;;;;;;4996438;28;20493;-61
2021/07/21 07:23:16;;;;;;;6.37;5.30;;;20.50;99.90;;;;;;4996245;28;20258;-61
2021/07/21 07:25:42;;;;;;;7.17;4.93;;;20.70;99.90;;;;;;4996115;28;20478;-61
2021/07/21 07:28:08;;;;;;;6.77;5.20;;;20.80;99.90;;;;;;4996106;28;20423;-62
2021/07/21 07:30:34;;;;;;;5.60;4.50;;;20.90;99.90;;;;;;4995624;28;20968;-61
2021/07/21 07:33:01;;;;;;;5.97;4.30;;;21.00;99.90;;;;;;4996075;28;20430;-60
2021/07/21 07:35:26;;;;;;;7.30;5.50;;;21.30;99.90;;;;;;4996272;28;20513;-62
2021/07/21 07:37:53;;;;;;;6.67;5.00;;;21.60;99.90;;;;;;4996232;28;20544;-63
2021/07/21 07:40:19;;;;;;;5.93;5.20;;;22.10;99.90;;;;;;4996047;28;20228;-62
2021/07/21 07:42:45;;;;;;;6.67;5.37;;;22.80;99.90;;;;;;4995766;28;20528;-62
2021/07/21 07:45:11;;;;;;;7.00;4.73;;;23.60;99.90;;;;;;4995825;28;20779;-62
2021/07/21 07:47:37;;;;;;;6.23;5.27;;;24.30;98.50;;;;;;4996116;28;20447;-62
2021/07/21 07:50:08;;;;;;;5.60;5.10;;;25.00;97.30;;;;;;4995460;28;20834;-62
2021/07/21 07:52:34;;;;;;;5.33;4.83;;;25.60;96.50;;;;;;4995418;28;20187;-62
2021/07/21 07:55:00;;;;;;;5.20;4.67;;;26.40;94.40;;;;;;4995603;28;20384;-63
2021/07/21 07:57:26;;;;;;;7.20;6.50;;;27.40;94.40;;;;;;4995629;28;20807;-63
2021/07/21 07:59:51;;;;;;;5.97;5.40;;;28.50;91.20;;;;;;4995316;28;20586;-63
2021/07/21 08:02:17;;;;;;;6.00;5.20;;;29.60;90.40;;;;;;4995500;28;20631;-62
2021/07/21 08:04:43;;;;;;;5.93;5.33;;;30.50;86.00;;;;;;4994985;28;20191;-63
2021/07/21 08:07:08;;;;;;;5.30;4.80;;;31.00;82.90;;;;;;4994208;28;20211;-63
2021/07/21 08:09:34;;;;;;;4.87;4.47;;;31.70;79.00;;;;;;4995055;28;20164;-63
2021/07/21 08:12:00;;;;;;;5.60;5.00;;;32.60;77.00;;;;;;4995415;28;20227;-62
2021/07/21 08:14:26;;;;;;;5.30;4.83;;;33.30;72.80;;;;;;4995439;28;20176;-62
2021/07/21 08:16:52;;;;;;;6.20;5.67;;;33.60;70.30;;;;;;4995194;28;20772;-63
2021/07/21 08:19:19;;;;;;;5.73;5.23;;;33.40;69.80;;;;;;4994317;28;20423;-62
2021/07/21 08:21:45;;;;;;;8.17;5.20;;;33.50;72.40;;;;;;4995390;28;20439;-62
2021/07/21 08:24:11;;;;;;;6.20;5.70;;;33.80;68.80;;;;;;4995505;28;20774;-62
2021/07/21 08:26:37;;;;;;;5.33;4.83;;;33.90;67.90;;;;;;4994862;28;20520;-62
2021/07/21 08:29:04;;;;;;;10.37;5.90;;;34.50;68.70;;;;;;4994726;28;20411;-62
2021/07/21 08:31:29;;;;;;;5.60;5.20;;;35.30;65.60;;;;;;4995304;28;20179;-62
2021/07/21 08:34:00;;;;;;;7.07;6.37;;;35.40;62.60;;;;;;4994956;28;20743;-62
2021/07/21 08:36:27;;;;;;;6.90;6.40;;;35.60;59.70;;;;;;4995317;28;20195;-63
2021/07/21 08:38:53;;;;;;;6.33;5.33;;;36.10;60.10;;;;;;4994736;28;20777;-63
2021/07/21 08:41:19;;;;;;;6.23;5.63;;;36.30;59.60;;;;;;4994563;28;20416;-63
2021/07/21 08:43:46;;;;;;;4.83;4.53;;;36.30;58.60;;;;;;4994858;28;20573;-63
2021/07/21 08:46:12;;;;;;;6.20;5.60;;;36.40;59.40;;;;;;4994748;28;20415;-63
2021/07/21 08:48:38;;;;;;;6.33;5.73;;;35.90;57.50;;;;;;4994187;28;20407;-62
2021/07/21 08:51:04;;;;;;;6.00;5.40;;;35.90;57.90;;;;;;4994447;28;20502;-63
2021/07/21 08:53:30;;;;;;;5.60;5.20;;;35.80;57.60;;;;;;4994906;28;20175;-63
2021/07/21 08:55:58;;;;;;;5.87;5.40;;;35.70;57.60;;;;;;4994454;28;20505;-63
2021/07/21 08:58:24;;;;;;;6.03;5.30;;;35.70;58.10;;;;;;4993063;28;20210;-63
2021/07/21 09:00:51;;;;;;;5.67;5.27;;;35.50;57.90;;;;;;4994631;28;20426;-63
2021/07/21 09:03:19;;;;;;;5.67;5.27;;;35.60;57.40;;;;;;4994584;28;20431;-63
2021/07/21 09:05:55;;;;;;;6.83;5.37;;;35.80;57.30;;;;;;4993746;28;20500;-63
2021/07/21 09:08:21;;;;;;;6.10;5.50;;;36.20;57.40;;;;;;4994062;28;20454;-62
2021/07/21 09:10:48;;;;;;;5.80;5.40;;;35.70;57.00;;;;;;4994508;28;20836;-63
2021/07/21 09:13:14;;;;;;;5.67;5.23;;;35.70;57.20;;;;;;4994579;28;20584;-63
2021/07/21 09:15:43;;;;;;;6.13;5.63;;;36.40;56.70;;;;;;4994299;28;20427;-63
2021/07/21 09:18:10;;;;;;;5.93;5.40;;;36.70;56.10;;;;;;4993926;28;20426;-63
2021/07/21 09:20:39;;;;;;;4.87;4.57;;;36.50;55.80;;;;;;4994545;28;20901;-63
2021/07/21 09:23:04;;;;;;;5.40;5.00;;;36.60;55.00;;;;;;4994304;28;20473;-63
2021/07/21 09:25:32;;;;;;;5.93;5.43;;;37.10;54.30;;;;;;4993613;28;20486;-63
2021/07/21 09:28:00;;;;;;;4.70;4.40;;;37.50;53.10;;;;;;4993807;28;20214;-62
2021/07/21 09:30:31;;;;;;;6.03;5.53;;;37.50;52.60;;;;;;4994117;28;20897;-62
2021/07/21 09:33:00;;;;;;;5.63;5.17;;;37.40;53.20;;;;;;4994154;28;20425;-62
2021/07/21 09:35:43;;;;;;;16.20;5.13;;;37.30;52.00;;;;;;4993917;28;20431;-62
2021/07/21 09:38:12;;;;;;;5.63;5.13;;;36.60;52.00;;;;;;4993852;28;20445;-62
2021/07/21 09:40:46;;;;;;;6.40;5.90;;;36.30;52.90;;;;;;4992602;28;20422;-62
2021/07/21 09:43:14;;;;;;;5.30;4.90;;;36.40;52.90;;;;;;4994261;28;20418;-62
2021/07/21 09:45:42;;;;;;;5.23;4.77;;;36.40;53.00;;;;;;4993902;28;20462;-62
2021/07/21 09:48:08;;;;;;;5.77;5.27;;;36.60;53.10;;;;;;4993367;28;20458;-62
2021/07/21 09:50:36;;;;;;;6.10;5.67;;;36.60;52.80;;;;;;4993052;28;20407;-62
2021/07/21 09:53:05;;;;;;;5.37;4.87;;;36.70;51.50;;;;;;4992963;28;20410;-62
2021/07/21 09:55:34;;;;;;;5.70;5.20;;;36.60;50.70;;;;;;4993399;28;20446;-66
2021/07/21 09:58:02;;;;;;;5.33;4.93;;;36.60;50.80;;;;;;4993700;28;20415;-66
2021/07/21 10:00:32;;;;;;;5.77;5.27;;;36.60;51.70;;;;;;4993943;28;20402;-60
2021/07/21 10:03:40;;;;;;;5.67;5.27;;;36.20;50.90;;;;;;4993683;28;20414;-61
2021/07/21 10:06:09;;;;;;;5.30;4.90;;;36.30;51.30;;;;;;4953094;29;20463;-62
2021/07/21 10:08:43;;;;;;;5.70;5.27;;;36.00;51.50;;;;;;4952704;29;20563;-62
2021/07/21 10:11:30;;;;;;;5.10;4.50;;;36.00;51.10;;;;;;4966222;28;20424;-63
2021/07/21 10:14:09;;;;;;;5.90;5.40;;;36.40;51.60;;;;;;4972403;28;20403;-63
2021/07/21 10:16:49;;;;;;;5.77;5.37;;;36.60;50.50;;;;;;4973893;28;20511;-63
2021/07/21 10:19:28;;;;;;;6.10;5.60;;;36.50;50.20;;;;;;4975690;28;20415;-64
2021/07/21 10:21:57;;;;;;;5.60;5.17;;;35.80;50.90;;;;;;4975915;28;20408;-64
2021/07/21 10:24:25;;;;;;;7.13;5.73;;;35.40;51.20;;;;;;4975057;28;20431;-64
2021/07/21 10:26:52;;;;;;;6.30;5.43;;;35.30;51.10;;;;;;4975592;28;20474;-64
2021/07/21 10:29:18;;;;;;;5.67;5.17;;;34.80;52.00;;;;;;4975716;28;20498;-64
2021/07/21 10:31:45;;;;;;;5.93;5.37;;;34.70;52.50;;;;;;4975883;28;20786;-64
2021/07/21 10:34:14;;;;;;;5.20;4.73;;;34.50;52.20;;;;;;4975741;28;20412;-64
2021/07/21 10:36:39;;;;;;;5.93;5.43;;;34.80;52.90;;;;;;4976489;28;20497;-64
2021/07/21 10:39:17;;;;;;;6.10;5.50;;;35.30;51.50;;;;;;4978834;28;20498;-64
2021/07/21 10:41:44;;;;;;;6.87;5.90;;;35.20;51.20;;;;;;4995883;28;20238;-63
2021/07/21 10:44:13;;;;;;;6.13;4.97;;;34.60;51.60;;;;;;4997296;28;20403;-63
2021/07/21 10:46:40;;;;;;;6.87;5.50;;;34.60;52.60;;;;;;4996764;28;20436;-65
2021/07/21 10:49:33;;;;;;;5.63;5.13;;;34.50;54.00;;;;;;4996782;28;20422;-63
2021/07/21 10:55:19;;;;;;;5.50;5.00;;;34.50;52.60;;;;;;4996641;28;20425;-63
2021/07/21 11:00:23;;;;;;;6.00;5.20;;;34.40;52.00;;;;;;4996796;28;20422;-62
2021/07/21 11:02:50;;;;;;;6.33;5.73;;;34.10;51.80;;;;;;4996343;28;20414;-62
2021/07/21 11:05:38;;;;;;;5.83;5.33;;;33.90;53.00;;;;;;4996764;28;20417;-63
2021/07/21 11:08:05;;;;;;;5.47;4.90;;;33.60;53.80;;;;;;4995833;28;20457;-62
2021/07/21 11:10:33;;;;;;;5.90;5.37;;;33.40;53.20;;;;;;4996089;28;20925;-62
2021/07/21 11:13:00;;;;;;;7.03;5.93;;;33.40;53.60;;;;;;4995451;28;20480;-63
2021/07/21 11:15:42;;;;;;;6.57;5.87;;;33.40;54.00;;;;;;4995086;28;20944;-62
2021/07/21 11:18:23;;;;;;;6.00;5.33;;;33.00;53.30;;;;;;4996349;28;20411;-64
2021/07/21 11:20:54;;;;;;;6.17;5.47;;;32.10;54.30;;;;;;4996233;28;20393;-64
2021/07/21 11:23:39;;;;;;;5.70;5.00;;;31.20;56.00;;;;;;4996045;28;20411;-63
2021/07/21 11:31:10;;;;;;;5.27;4.60;;;29.50;61.40;;;;;;5012746;28;20459;-63
2021/07/21 11:33:54;;;;;;;6.60;5.90;;;29.20;64.40;;;;;;5014111;28;20409;-67
2021/07/21 11:36:39;;;;;;;6.27;5.33;;;28.80;62.00;;;;;;5016025;28;20175;-67
2021/07/21 11:39:06;;;;;;;7.17;5.40;;;28.60;65.10;;;;;;5014471;28;20935;-66
2021/07/21 11:41:44;;;;;;;6.13;5.00;;;28.40;66.20;;;;;;5015900;28;20803;-65
2021/07/21 11:44:10;;;;;;;6.10;5.10;;;28.20;64.50;;;;;;5015935;28;20388;-64
2021/07/21 11:46:42;;;;;;;6.97;5.67;;;28.10;65.00;;;;;;5014344;28;20372;-65
2021/07/21 11:49:10;;;;;;;6.43;5.17;;;28.10;65.20;;;;;;5014183;28;20421;-64
2021/07/21 11:51:36;;;;;;;5.30;4.50;;;28.00;64.00;;;;;;5015664;28;20460;-65
2021/07/21 11:54:02;;;;;;;6.47;5.80;;;27.80;66.40;;;;;;5015553;28;20501;-65
2021/07/21 11:56:30;;;;;;;5.73;5.10;;;27.80;65.80;;;;;;5015419;28;20712;-65
2021/07/21 11:59:04;;;;;;;5.90;4.93;;;27.70;67.20;;;;;;5013835;28;20206;-67
2021/07/21 12:01:30;;;;;;;5.30;4.80;;;27.50;66.50;;;;;;5013952;28;20427;-65
2021/07/21 12:03:55;;;;;;;6.67;5.43;;;27.30;66.40;;;;;;5013982;28;20412;-65
2021/07/21 12:06:26;;;;;;;6.13;5.53;;;27.20;65.80;;;;;;5014031;28;20251;-67
2021/07/21 12:08:56;;;;;;;5.17;4.70;;;27.20;68.70;;;;;;5014891;28;20632;-68
2021/07/21 12:11:25;;;;;;;7.80;5.40;;;27.10;70.30;;;;;;5014931;28;20461;-69
2021/07/21 12:14:20;;;;;;;8.27;4.67;;;27.00;70.70;;;;;;5013842;28;20779;-69
2021/07/21 12:16:46;;;;;;;6.67;5.33;;;26.70;69.80;;;;;;5014577;28;20513;-69
2021/07/21 12:19:12;;;;;;;7.40;5.50;;;26.70;71.20;;;;;;5013608;28;20529;-68
2021/07/21 12:21:38;;;;;;;5.63;4.57;;;26.80;72.10;;;;;;5014948;28;20174;-69
2021/07/21 12:24:05;;;;;;;6.70;5.10;;;26.70;70.60;;;;;;5014976;28;20855;-69
2021/07/21 12:26:38;;;;;;;5.80;4.50;;;26.80;71.70;;;;;;5013376;28;20641;-68
2021/07/21 12:29:04;;;;;;;6.97;4.50;;;26.80;71.90;;;;;;5015529;28;20421;-68
2021/07/21 12:31:30;;;;;;;6.47;4.93;;;26.80;73.00;;;;;;5014902;28;20418;-69
2021/07/21 12:34:19;;;;;;;4.80;4.07;;;26.80;75.20;;;;;;5014695;28;20207;-68
2021/07/21 12:36:49;;;;;;;4.77;4.07;;;26.90;72.00;;;;;;5014331;28;20402;-68
2021/07/21 12:39:22;;;;;;;6.30;4.60;;;26.80;71.30;;;;;;5013329;28;20506;-66
2021/07/21 12:41:48;;;;;;;8.53;5.27;;;26.70;72.10;;;;;;5014758;28;20453;-66
2021/07/21 12:44:17;;;;;;;6.53;5.13;;;26.60;72.60;;;;;;5014392;28;20436;-67
2021/07/21 12:46:46;;;;;;;5.33;4.73;;;26.60;72.90;;;;;;5013708;28;20414;-66
2021/07/21 12:49:12;;;;;;;5.80;4.93;;;26.50;72.70;;;;;;5012985;28;20784;-67
2021/07/21 12:51:38;;;;;;;3.87;3.50;;;26.50;73.80;;;;;;5012287;28;20807;-67
2021/07/21 12:54:06;;;;;;;8.13;5.30;;;26.50;75.00;;;;;;5012741;28;20464;-65
2021/07/21 12:56:31;;;;;;;6.70;4.90;;;26.50;74.60;;;;;;5012695;28;20175;-68
2021/07/21 12:59:10;;;;;;;6.47;4.20;;;26.50;74.50;;;;;;5026029;28;21005;-66
2021/07/21 13:01:37;;;;;;;5.63;4.17;;;26.60;74.70;;;;;;5032372;28;20182;-67
2021/07/21 13:04:03;;;;;;;7.87;5.60;;;26.50;75.40;;;;;;5031722;28;20387;-65
2021/07/21 13:06:29;;;;;;;6.87;5.20;;;26.70;76.00;;;;;;5033682;28;20398;-66
2021/07/21 13:08:55;;;;;;;5.37;4.00;;;26.60;74.30;;;;;;5033540;28;20504;-66